Time;durP1;ratioP1;P1;durP2;ratioP2;P2;SDS_P1;SDS_P2;PMS_P1;PMS_P2;Temp;Humidity;BMP_temperature;BMP_pressure;BME280_temperature;BME280_humidity;BME280_pressure;Samples;Min_cycle;Max_cycle;Signal;HPM_P1;HPM_P2
2021/01/28 00:01:20;;;;;;;21.60;12.35;;;;;;;-2.99;81.36;96233.09;1791002;80;21154;-90
2021/01/28 00:03:47;;;;;;;21.57;11.03;;;;;;;-3.03;81.27;96230.61;1790983;80;21143;-90
2021/01/28 00:06:14;;;;;;;23.90;12.03;;;;;;;-2.98;81.33;96231.30;1790997;80;21289;-90
2021/01/28 00:08:42;;;;;;;21.12;10.82;;;;;;;-3.03;81.13;96226.73;1790976;80;21120;-89
2021/01/28 00:11:09;;;;;;;23.85;12.43;;;;;;;-3.06;81.14;96222.45;1790992;80;21281;-91
2021/01/28 00:13:36;;;;;;;21.75;11.93;;;;;;;-3.09;81.14;96220.27;1791108;80;21151;-91
2021/01/28 00:16:04;;;;;;;21.17;12.70;;;;;;;-3.10;81.16;96225.12;1791152;80;21116;-90
2021/01/28 00:18:31;;;;;;;24.70;12.15;;;;;;;-3.18;81.07;96218.88;1791331;80;21172;-90
2021/01/28 00:20:58;;;;;;;23.07;12.95;;;;;;;-3.27;81.01;96214.38;1791230;80;21133;-91
2021/01/28 00:23:25;;;;;;;23.22;13.10;;;;;;;-3.37;81.04;96218.70;1791325;80;21468;-91
2021/01/28 00:25:52;;;;;;;28.42;13.88;;;;;;;-3.44;81.05;96214.00;1791344;80;21795;-91
2021/01/28 00:28:22;;;;;;;32.23;16.70;;;;;;;-3.49;81.14;96211.22;1791314;80;21192;-91
2021/01/28 00:30:53;;;;;;;29.27;14.95;;;;;;;-3.57;81.25;96222.27;1791379;80;21481;-91
2021/01/28 00:33:24;;;;;;;31.97;15.72;;;;;;;-3.63;81.35;96210.42;1791213;80;21481;-89
2021/01/28 00:35:56;;;;;;;34.83;16.07;;;;;;;-3.57;81.50;96209.31;1791060;80;21132;-91
2021/01/28 00:38:31;;;;;;;29.27;14.55;;;;;;;-3.60;81.54;96202.74;1791128;80;21116;-89
2021/01/28 00:41:00;;;;;;;32.67;15.90;;;;;;;-3.57;81.70;96193.27;1791144;80;21088;-91
2021/01/28 00:43:28;;;;;;;32.03;15.75;;;;;;;-3.51;81.72;96190.40;1791279;80;21163;-91
2021/01/28 00:45:56;;;;;;;29.27;14.75;;;;;;;-3.50;81.70;96186.81;1791135;80;21460;-90
2021/01/28 00:48:24;;;;;;;27.10;13.22;;;;;;;-3.49;81.70;96180.13;1791202;80;21143;-91
2021/01/28 00:50:53;;;;;;;24.90;12.95;;;;;;;-3.49;81.67;96176.73;1791396;80;21135;-90
2021/01/28 00:53:23;;;;;;;31.97;16.20;;;;;;;-3.53;81.57;96180.20;1791174;80;21525;-90
2021/01/28 00:55:51;;;;;;;27.10;14.43;;;;;;;-3.61;81.53;96181.22;1791264;80;21131;-91
2021/01/28 00:58:22;;;;;;;28.15;15.85;;;;;;;-3.63;81.60;96178.53;1791275;80;21461;-91
2021/01/28 01:00:50;;;;;;;35.70;16.62;;;;;;;-3.61;81.72;96183.02;1791238;80;21120;-90
2021/01/28 01:03:21;;;;;;;28.12;15.13;;;;;;;-3.55;81.83;96175.73;1791121;80;21127;-90
2021/01/28 01:05:51;;;;;;;24.65;13.00;;;;;;;-3.51;81.79;96176.15;1791192;80;21440;-91
2021/01/28 01:08:23;;;;;;;30.00;14.98;;;;;;;-3.47;81.83;96173.45;1791270;80;21140;-91
2021/01/28 01:11:01;;;;;;;30.57;15.53;;;;;;;-3.52;81.76;96167.55;1790956;80;21534;-91
2021/01/28 01:13:32;;;;;;;24.55;14.03;;;;;;;-3.53;81.78;96166.45;1790758;80;21116;-90
2021/01/28 01:16:00;;;;;;;29.40;16.00;;;;;;;-3.57;81.78;96160.09;1791412;80;21120;-92
2021/01/28 01:18:31;;;;;;;27.65;13.72;;;;;;;-3.61;81.87;96168.77;1791059;80;21135;-91
2021/01/28 01:21:01;;;;;;;22.07;12.10;;;;;;;-3.61;81.93;96159.20;1791131;80;21124;-92
2021/01/28 01:23:28;;;;;;;27.25;13.93;;;;;;;-3.57;81.96;96166.56;1791325;80;21143;-92
2021/01/28 01:25:55;;;;;;;21.70;13.93;;;;;;;-3.60;81.87;96162.59;1791071;80;21139;-91
2021/01/28 01:28:23;;;;;;;22.22;12.53;;;;;;;-3.65;81.97;96155.42;1791069;80;21441;-91
2021/01/28 01:30:50;;;;;;;23.18;13.08;;;;;;;-3.62;82.00;96149.05;1791381;80;21135;-90
2021/01/28 01:33:17;;;;;;;25.17;12.53;;;;;;;-3.62;82.06;96150.34;1791213;80;21144;-89
2021/01/28 01:35:43;;;;;;;24.23;11.45;;;;;;;-3.62;82.07;96143.36;1791098;80;21144;-92
2021/01/28 01:38:11;;;;;;;23.10;11.45;;;;;;;-3.59;82.23;96139.07;1791057;80;21463;-91
2021/01/28 01:40:43;;;;;;;26.45;13.88;;;;;;;-3.57;82.12;96140.16;1791158;80;21144;-91
2021/01/28 01:43:14;;;;;;;28.35;13.62;;;;;;;-3.57;82.09;96143.25;1791299;80;21127;-91
2021/01/28 01:45:47;;;;;;;35.83;16.10;;;;;;;-3.54;82.04;96143.64;1791388;80;21112;-90
2021/01/28 01:48:49;;;;;;;47.88;21.97;;;;;;;-3.58;81.89;96145.05;1791137;80;21662;-90
2021/01/28 01:51:27;;;;;;;36.08;17.20;;;;;;;-3.70;81.77;96147.94;1791159;80;21590;-93
2021/01/28 01:54:24;;;;;;;28.47;14.33;;;;;;;-3.71;81.94;96149.73;1791050;80;21147;-91
2021/01/28 01:57:02;;;;;;;25.30;12.18;;;;;;;-3.66;82.15;96143.95;1791074;80;21472;-91
2021/01/28 01:59:40;;;;;;;26.52;11.08;;;;;;;-3.66;82.17;96143.47;1791352;80;21123;-92
2021/01/28 02:02:16;;;;;;;20.55;10.60;;;;;;;-3.55;82.29;96147.23;1791080;80;21133;-91
2021/01/28 02:04:47;;;;;;;23.55;13.05;;;;;;;-3.51;82.21;96142.47;1791068;80;21543;-90
2021/01/28 02:07:21;;;;;;;28.60;12.53;;;;;;;-3.60;82.08;96149.14;1791046;80;21135;-92
2021/01/28 02:09:49;;;;;;;25.75;12.43;;;;;;;-3.65;82.16;96141.18;1791372;80;21136;-91
2021/01/28 02:12:18;;;;;;;23.18;12.50;;;;;;;-3.60;82.28;96142.66;1791101;80;21514;-91
2021/01/28 02:14:47;;;;;;;25.10;13.83;;;;;;;-3.67;82.10;96142.35;1791326;80;21127;-91
2021/01/28 02:17:24;;;;;;;24.67;13.67;;;;;;;-3.74;82.17;96134.60;1791550;80;21143;-92
2021/01/28 02:20:02;;;;;;;26.35;13.88;;;;;;;-3.74;82.25;96135.10;1791074;80;21136;-92
2021/01/28 02:22:34;;;;;;;22.07;11.83;;;;;;;-3.74;82.32;96119.56;1791467;80;21127;-91
2021/01/28 02:25:27;;;;;;;24.82;13.32;;;;;;;-3.72;82.30;96126.12;1790962;80;21112;-92
2021/01/28 02:27:59;;;;;;;25.85;14.28;;;;;;;-3.70;82.28;96121.54;1791111;80;21155;-90
2021/01/28 02:30:36;;;;;;;25.65;13.00;;;;;;;-3.69;82.29;96113.27;1791133;80;21131;-90
2021/01/28 02:33:06;;;;;;;25.08;13.50;;;;;;;-3.67;82.31;96111.27;1791014;80;21175;-90
2021/01/28 02:35:36;;;;;;;25.65;13.08;;;;;;;-3.66;82.28;96112.86;1791189;80;21257;-91
2021/01/28 02:38:10;;;;;;;22.80;12.63;;;;;;;-3.64;82.18;96107.01;1791573;80;21159;-90
2021/01/28 02:40:39;;;;;;;25.10;12.73;;;;;;;-3.67;82.03;96103.50;1791663;80;21456;-91
2021/01/28 02:43:06;;;;;;;25.10;13.00;;;;;;;-3.69;81.92;96102.41;1791849;80;21139;-91
2021/01/28 02:45:36;;;;;;;24.75;11.75;;;;;;;-3.73;81.91;96099.93;1791860;80;21148;-91
2021/01/28 02:48:11;;;;;;;16.40;9.53;;;;;;;-3.70;81.89;96098.23;1791962;80;21128;-90
2021/01/28 02:50:39;;;;;;;20.92;9.95;;;;;;;-3.62;81.92;96099.33;1791773;80;21120;-92
2021/01/28 02:53:07;;;;;;;20.62;9.90;;;;;;;-3.56;81.84;96103.39;1791495;80;21175;-91
2021/01/28 02:55:36;;;;;;;23.73;10.98;;;;;;;-3.52;81.72;96098.89;1791551;80;21144;-92
2021/01/28 02:58:03;;;;;;;22.20;11.90;;;;;;;-3.48;81.61;96099.30;1791717;80;21200;-91
2021/01/28 03:00:35;;;;;;;21.17;11.63;;;;;;;-3.52;81.48;96093.71;1792764;80;21151;-92
2021/01/28 03:03:08;;;;;;;17.55;9.70;;;;;;;-3.51;81.27;96091.95;1793348;80;21149;-91
2021/01/28 03:05:36;;;;;;;25.17;11.85;;;;;;;-3.52;81.10;96087.73;1793271;80;21112;-91
2021/01/28 03:08:05;;;;;;;17.15;9.38;;;;;;;-3.47;81.15;96095.72;1793484;80;21297;-91
2021/01/28 03:10:32;;;;;;;23.47;12.35;;;;;;;-3.39;81.16;96095.48;1799209;80;21470;-92
2021/01/28 03:12:59;;;;;;;17.77;10.80;;;;;;;-3.40;81.00;96093.39;1784684;80;21152;-91
2021/01/28 03:15:28;;;;;;;19.62;10.18;;;;;;;-3.40;80.85;96090.80;1799197;80;21163;-92
2021/01/28 03:17:56;;;;;;;23.55;11.60;;;;;;;-3.47;80.60;96082.27;1784606;80;21180;-90
2021/01/28 03:20:25;;;;;;;20.15;9.70;;;;;;;-3.52;80.48;96076.08;1799288;80;21137;-90
2021/01/28 03:22:52;;;;;;;21.77;10.45;;;;;;;-3.62;80.44;96073.42;1799195;80;21522;-91
2021/01/28 03:25:21;;;;;;;20.20;10.58;;;;;;;-3.66;80.45;96077.89;1784634;80;21135;-90
2021/01/28 03:27:49;;;;;;;24.65;11.90;;;;;;;-3.71;80.37;96068.15;1799102;80;21103;-91
2021/01/28 03:30:21;;;;;;;19.37;10.45;;;;;;;-3.69;80.42;96070.03;1784906;80;21281;-90
2021/01/28 03:32:48;;;;;;;20.40;10.18;;;;;;;-3.72;80.38;96073.03;1799172;80;21471;-92
2021/01/28 03:35:19;;;;;;;21.00;10.85;;;;;;;-3.77;80.27;96072.85;1784580;80;21510;-91
2021/01/28 03:37:47;;;;;;;22.62;11.93;;;;;;;-3.79;80.34;96067.08;1799116;79;21091;-92
2021/01/28 03:40:17;;;;;;;22.65;10.90;;;;;;;-3.83;80.25;96061.19;1784725;80;21162;-90
2021/01/28 03:42:44;;;;;;;18.45;9.33;;;;;;;-3.87;80.22;96048.36;1799241;80;21121;-90
2021/01/28 03:45:13;;;;;;;24.70;11.90;;;;;;;-3.92;80.09;96056.73;1799115;80;21122;-91
2021/01/28 03:47:41;;;;;;;19.95;10.53;;;;;;;-4.04;80.04;96053.16;1784685;80;21499;-91
2021/01/28 03:50:11;;;;;;;23.45;10.20;;;;;;;-4.09;80.14;96046.47;1799556;80;21134;-91
2021/01/28 03:52:38;;;;;;;;;;;;;;;-4.14;80.20;96049.66;1787527;80;21146;-91
2021/01/28 03:55:07;;;;;;;18.37;9.40;;;;;;;-4.22;80.26;96049.39;1784814;80;20143;-90
2021/01/28 03:57:35;;;;;;;17.42;9.53;;;;;;;-4.29;80.23;96051.16;1799332;80;21133;-91
2021/01/28 04:00:12;;;;;;;21.33;10.58;;;;;;;-4.35;80.35;96046.79;1799368;80;21244;-91
2021/01/28 04:02:39;;;;;;;15.30;8.88;;;;;;;-4.49;80.38;96046.48;1784898;80;21123;-91
2021/01/28 04:05:08;;;;;;;15.80;8.90;;;;;;;-4.51;80.70;96051.03;1799549;80;21111;-90
2021/01/28 04:07:35;;;;;;;19.80;9.98;;;;;;;-4.56;80.58;96046.95;1799532;80;21130;-91
2021/01/28 04:10:10;;;;;;;13.18;6.95;;;;;;;-4.68;80.64;96046.73;1799365;80;21156;-90
2021/01/28 04:12:37;;;;;;;18.77;9.08;;;;;;;-4.76;80.58;96047.43;1799256;80;21126;-92
2021/01/28 04:15:07;;;;;;;18.05;10.28;;;;;;;-4.89;80.50;96047.70;1799533;80;21285;-92
2021/01/28 04:17:34;;;;;;;21.30;10.28;;;;;;;-5.01;80.53;96049.25;1784979;80;21190;-90
2021/01/28 04:20:01;;;;;;;27.95;11.28;;;;;;;-5.02;80.59;96042.98;1799247;80;21142;-91
2021/01/28 04:22:28;;;;;;;15.95;8.60;;;;;;;-5.05;80.78;96046.77;1784792;80;21123;-92
2021/01/28 04:24:55;;;;;;;19.05;9.85;;;;;;;-5.06;80.92;96030.16;1799412;80;21276;-91
2021/01/28 04:27:22;;;;;;;19.15;9.48;;;;;;;-5.04;81.09;96031.55;1799238;80;21553;-90
2021/01/28 04:29:49;;;;;;;17.25;8.30;;;;;;;-5.02;81.04;96026.98;1799334;80;21091;-91
2021/01/28 04:32:16;;;;;;;16.32;7.22;;;;;;;-5.04;80.91;96025.59;1799421;80;21244;-93
2021/01/28 04:34:44;;;;;;;16.12;7.60;;;;;;;-5.14;80.72;96023.37;1799323;80;21158;-90
2021/01/28 04:37:11;;;;;;;10.20;5.80;;;;;;;-5.24;80.66;96015.17;1799318;80;21319;-90
2021/01/28 04:39:41;;;;;;;12.93;6.87;;;;;;;-5.27;81.06;96011.20;1799352;80;21126;-92
2021/01/28 04:42:18;;;;;;;16.90;7.78;;;;;;;-5.34;81.14;96010.89;1799227;80;21120;-91
2021/01/28 04:44:45;;;;;;;20.43;8.80;;;;;;;-5.41;81.37;96006.48;1799249;80;21108;-91
2021/01/28 04:47:18;;;;;;;9.78;4.83;;;;;;;-5.43;81.43;96007.17;1799200;80;21133;-92
2021/01/28 04:49:55;;;;;;;11.60;6.20;;;;;;;-5.43;81.61;95999.42;1798836;80;21135;-91
2021/01/28 04:52:25;;;;;;;16.00;7.47;;;;;;;-5.37;81.69;95998.64;1797467;80;21166;-92
2021/01/28 04:54:56;;;;;;;13.13;7.28;;;;;;;-5.34;81.45;95997.97;1799389;80;21098;-91
2021/01/28 04:57:23;;;;;;;13.95;6.42;;;;;;;-5.34;81.25;95996.68;1799416;80;21319;-92
2021/01/28 04:59:54;;;;;;;11.83;7.20;;;;;;;-5.37;81.07;95996.55;1799206;80;21121;-92
2021/01/28 05:02:29;;;;;;;20.62;8.78;;;;;;;-5.44;80.73;95994.45;1799433;80;21268;-91
2021/01/28 05:05:05;;;;;;;16.05;8.48;;;;;;;-5.53;80.63;95989.94;1799212;80;21486;-91
2021/01/28 05:07:36;;;;;;;13.60;7.58;;;;;;;-5.62;80.70;95990.31;1799218;80;21119;-91
2021/01/28 05:10:27;;;;;;;14.07;6.72;;;;;;;-5.75;81.02;95989.75;1799427;80;21122;-91
2021/01/28 05:12:57;;;;;;;16.52;7.67;;;;;;;-5.86;81.20;95992.87;1792402;80;21114;-92
2021/01/28 05:15:30;;;;;;;18.07;6.92;;;;;;;-5.90;81.18;95995.07;1799340;80;21106;-93
2021/01/28 05:20:49;;;;;;;15.78;7.87;;;;;;;-5.90;81.07;95995.56;1878651;76;22878;-91
2021/01/28 05:23:32;;;;;;;15.38;7.37;;;;;;;-5.96;81.07;95997.59;1819436;79;21099;-92
2021/01/28 05:26:00;;;;;;;11.60;6.53;;;;;;;-5.95;81.35;95996.12;1819517;79;21139;-91
2021/01/28 05:28:38;;;;;;;11.25;6.28;;;;;;;-5.93;81.56;95997.21;1838844;77;21100;-92
2021/01/28 05:31:06;;;;;;;13.15;7.70;;;;;;;-5.92;81.84;95996.22;1801834;80;21146;-92
2021/01/28 05:33:40;;;;;;;16.70;8.68;;;;;;;-5.89;81.99;95995.34;1793122;80;21108;-93
2021/01/28 05:36:18;;;;;;;11.85;6.10;;;;;;;-5.86;81.74;95989.00;1793415;79;21135;-92
2021/01/28 05:38:52;;;;;;;14.45;8.68;;;;;;;-5.86;81.66;95976.09;1793381;79;21124;-92
2021/01/28 05:41:33;;;;;;;15.95;9.15;;;;;;;-5.88;81.66;95980.66;1793193;80;21123;-91
2021/01/28 05:44:23;;;;;;;21.40;9.38;;;;;;;-5.89;81.58;95976.48;1793115;80;21119;-92
2021/01/28 05:47:14;;;;;;;19.10;9.38;;;;;;;-5.88;81.55;95980.66;1793279;79;21148;-93
2021/01/28 05:49:43;;;;;;;18.62;9.25;;;;;;;-5.92;81.40;95988.48;1793212;79;21479;-92
2021/01/28 05:52:30;;;;;;;20.07;8.40;;;;;;;-6.09;81.25;95980.25;1793176;80;21140;-92
2021/01/28 05:55:14;;;;;;;15.30;6.20;;;;;;;-6.18;81.50;95976.25;1793234;79;21140;-93
2021/01/28 05:58:18;;;;;;;12.53;6.50;;;;;;;-6.26;81.97;95961.70;1777774;80;21554;-92
2021/01/28 06:01:06;;;;;;;19.82;9.10;;;;;;;-6.25;82.32;95956.05;1697780;84;21179;-92
2021/01/28 06:03:59;;;;;;;18.17;8.33;;;;;;;-6.19;82.28;95946.25;1775746;80;21558;-93
2021/01/28 06:07:02;;;;;;;9.88;5.50;;;;;;;-6.24;81.96;95945.54;1793132;79;21476;-92
2021/01/28 06:09:57;;;;;;;9.47;4.53;;;;;;;-6.25;81.90;95949.11;1793174;80;21156;-93
2021/01/28 06:12:50;;;;;;;14.85;6.92;;;;;;;-6.12;82.01;95949.68;1793104;79;21119;-92
2021/01/28 06:15:49;;;;;;;7.90;5.13;;;;;;;-5.96;81.71;95950.66;1792214;80;21143;-93
2021/01/28 06:18:39;;;;;;;12.63;6.03;;;;;;;-5.86;81.34;95954.16;1793147;79;21140;-92
2021/01/28 06:21:12;;;;;;;;;;;;;;;-5.84;80.94;95947.02;1795769;79;21124;-92
2021/01/28 06:24:15;;;;;;;9.90;5.93;;;;;;;-5.84;80.71;95949.59;1792826;79;20154;-93
2021/01/28 06:27:18;;;;;;;7.43;4.17;;;;;;;-5.85;80.48;95940.27;1793066;79;21144;-93
2021/01/28 06:30:24;;;;;;;9.87;5.20;;;;;;;-5.80;80.16;95934.02;1793265;80;21115;-93
2021/01/28 06:33:02;;;;;;;12.37;6.23;;;;;;;-5.78;79.86;95932.83;1792584;80;21294;-92
2021/01/28 06:35:56;;;;;;;9.87;4.70;;;;;;;-5.84;79.68;95934.11;1792443;80;21132;-94
2021/01/28 06:39:00;;;;;;;13.20;5.90;;;;;;;-5.82;79.42;95930.34;1762346;80;21139;-93
2021/01/28 06:41:32;;;;;;;5.37;3.52;;;;;;;-5.76;79.31;95939.13;1788067;80;21139;-92
2021/01/28 06:44:10;;;;;;;8.30;4.57;;;;;;;-5.72;78.50;95926.13;1792531;79;21629;-93
2021/01/28 06:50:00;;;;;;;12.70;5.83;;;;;;;-4.94;76.58;95918.23;1878055;76;22974;-93
2021/01/28 06:52:52;;;;;;;14.05;7.70;;;;;;;-4.69;75.56;95909.89;1819447;79;21484;-91
2021/01/28 06:55:49;;;;;;;14.15;7.40;;;;;;;-4.55;74.66;95912.27;1819527;79;21285;-92
2021/01/28 06:58:52;;;;;;;8.63;4.35;;;;;;;-4.47;73.57;95909.19;1835910;77;21475;-92
2021/01/28 07:01:33;;;;;;;11.38;6.25;;;;;;;-4.20;72.97;95895.20;1801761;79;21100;-92
2021/01/28 07:04:24;;;;;;;8.63;5.67;;;;;;;-3.92;71.99;95880.68;1793066;80;21155;-90
2021/01/28 07:07:14;;;;;;;9.90;4.25;;;;;;;-3.78;70.66;95906.02;1793052;79;21096;-92
2021/01/28 07:09:51;;;;;;;11.70;5.80;;;;;;;-3.63;69.98;95908.64;1793260;79;21147;-92
2021/01/28 07:12:26;;;;;;;14.30;7.67;;;;;;;-3.51;69.16;95911.89;1793057;80;21164;-93
2021/01/28 07:14:53;;;;;;;12.45;5.97;;;;;;;-3.43;69.23;95921.99;1793121;80;21143;-92
2021/01/28 07:17:32;;;;;;;12.10;6.53;;;;;;;-3.22;68.22;95924.28;1793163;79;21143;-91
2021/01/28 07:20:04;;;;;;;17.75;7.60;;;;;;;-2.94;67.73;95922.61;1793138;80;21177;-92
2021/01/28 07:22:42;;;;;;;7.70;4.75;;;;;;;-2.94;67.73;95922.61;1793071;79;21111;-91
2021/01/28 07:25:31;;;;;;;12.63;6.28;;;;;;;-2.91;66.99;95920.09;1793287;80;21533;-90
2021/01/28 07:28:03;;;;;;;16.50;9.00;;;;;;;-2.89;66.70;95914.20;1779826;80;21140;-92
2021/01/28 07:30:57;;;;;;;11.65;7.67;;;;;;;-2.63;66.33;95911.41;1793356;80;21168;-92
2021/01/28 07:33:32;;;;;;;11.38;6.22;;;;;;;-2.36;66.09;95908.08;1778167;80;21155;-91
2021/01/28 07:36:14;;;;;;;14.45;7.58;;;;;;;-2.22;64.83;95912.13;1793120;79;21108;-91
2021/01/28 07:38:59;;;;;;;13.72;8.00;;;;;;;-2.12;64.48;95909.02;1789240;80;21153;-92
2021/01/28 07:44:43;;;;;;;11.80;5.65;;;;;;;-1.78;63.87;95886.09;1878396;76;23028;-91
2021/01/28 07:47:34;;;;;;;14.20;8.40;;;;;;;-1.79;62.60;95884.00;1821235;77;21122;-90
2021/01/28 07:50:31;;;;;;;9.93;5.72;;;;;;;-1.73;63.11;95887.02;1801865;80;21146;-93
2021/01/28 07:53:20;;;;;;;10.70;6.75;;;;;;;-1.38;62.02;95861.70;1793144;80;21119;-92
2021/01/28 07:55:48;;;;;;;12.25;6.08;;;;;;;-1.44;61.51;95885.45;1697888;84;21123;-94
2021/01/28 07:58:23;;;;;;;12.30;5.22;;;;;;;-1.45;61.87;95866.97;1697619;84;21167;-91
2021/01/28 08:00:51;;;;;;;14.73;8.13;;;;;;;-1.28;61.41;95862.72;1737614;80;21131;-91
2021/01/28 08:03:57;;;;;;;13.32;7.10;;;;;;;-1.34;61.29;95855.03;1793040;79;21159;-92
2021/01/28 08:06:25;;;;;;;9.33;5.08;;;;;;;-1.27;61.33;95851.34;1791659;80;21546;-94
2021/01/28 08:09:11;;;;;;;12.68;6.92;;;;;;;-1.33;60.84;95847.00;1793032;79;21150;-94
2021/01/28 08:11:38;;;;;;;14.23;7.55;;;;;;;-1.45;61.33;95850.07;1793101;80;21131;-92
2021/01/28 08:14:10;;;;;;;11.60;6.17;;;;;;;-1.31;61.74;95848.88;1793145;79;21495;-92
2021/01/28 08:16:39;;;;;;;13.53;7.85;;;;;;;-1.28;61.50;95842.44;1764816;80;21112;-93
2021/01/28 08:19:15;;;;;;;12.63;7.75;;;;;;;-1.12;62.46;95838.42;1793193;80;21147;-92
2021/01/28 08:21:42;;;;;;;10.88;6.10;;;;;;;-0.82;61.79;95837.84;1793247;80;21088;-91
2021/01/28 08:24:34;;;;;;;11.28;6.08;;;;;;;-0.96;60.90;95822.16;1793031;79;21143;-91
2021/01/28 08:26:51;;;;;;;12.47;6.45;;;;;;;-1.02;61.17;95821.73;1790922;80;21131;-91
2021/01/28 08:29:22;;;;;;;12.65;6.87;;;;;;;-0.91;61.13;95813.16;1793047;79;21201;-92
2021/01/28 08:31:53;;;;;;;13.10;7.35;;;;;;;-1.18;60.83;95809.39;1793437;79;21459;-91
2021/01/28 08:34:30;;;;;;;11.63;6.15;;;;;;;-1.13;61.33;95799.09;1793053;79;21119;-93
2021/01/28 08:37:06;;;;;;;14.40;8.03;;;;;;;-0.94;61.91;95804.52;1793069;79;21143;-92
2021/01/28 08:39:36;;;;;;;9.85;5.70;;;;;;;-1.04;61.39;95789.96;1792338;80;21131;-93
2021/01/28 08:42:11;;;;;;;14.78;8.45;;;;;;;-1.12;61.15;95799.41;1793149;80;21112;-92
2021/01/28 08:44:42;;;;;;;12.53;7.10;;;;;;;-1.01;63.40;95799.41;1793019;79;21139;-93
2021/01/28 08:47:23;;;;;;;9.90;5.67;;;;;;;-1.01;63.40;95799.41;1793124;79;21151;-91
2021/01/28 08:50:17;;;;;;;9.70;4.30;;;;;;;-0.76;61.78;95805.70;1793253;80;21115;-92
2021/01/28 08:52:47;;;;;;;13.20;6.70;;;;;;;-0.76;61.78;95805.70;1793165;79;21096;-91
2021/01/28 08:55:22;;;;;;;7.92;4.42;;;;;;;-0.58;61.57;95798.78;1792715;79;21135;-92
2021/01/28 08:57:54;;;;;;;9.40;6.25;;;;;;;-0.99;61.34;95782.27;1792231;80;21151;-94
2021/01/28 09:00:23;;;;;;;15.90;7.65;;;;;;;-0.99;61.34;95782.27;1788343;80;21115;-93
2021/01/28 09:02:54;;;;;;;12.78;7.28;;;;;;;-1.10;62.34;95804.67;1792865;79;21162;-93
2021/01/28 09:05:26;;;;;;;11.73;6.40;;;;;;;-1.16;62.32;95802.16;1792764;80;21119;-93
2021/01/28 09:07:57;;;;;;;11.70;5.08;;;;;;;-1.18;62.71;95800.29;1792491;79;21143;-92
2021/01/28 09:10:40;;;;;;;12.45;6.25;;;;;;;-1.16;62.20;95802.16;1792497;80;21242;-92
2021/01/28 09:13:25;;;;;;;8.80;4.80;;;;;;;-1.28;62.81;95803.43;1792476;80;21297;-94
2021/01/28 09:16:18;;;;;;;14.73;8.00;;;;;;;-1.41;62.67;95808.31;1792455;80;21598;-92
2021/01/28 09:18:51;;;;;;;13.90;6.67;;;;;;;-1.54;63.53;95803.33;1792474;80;21139;-93
2021/01/28 09:21:24;;;;;;;13.05;5.17;;;;;;;-1.65;63.71;95808.77;1792554;80;21285;-94
2021/01/28 09:24:04;;;;;;;11.63;5.12;;;;;;;-1.64;64.01;95801.27;1792441;80;21144;-94
2021/01/28 09:26:36;;;;;;;11.83;6.47;;;;;;;-1.70;63.89;95798.73;1790868;80;21124;-92
2021/01/28 09:29:25;;;;;;;13.53;6.60;;;;;;;-1.53;64.43;95796.61;1792321;80;21285;-93
2021/01/28 09:31:53;;;;;;;13.03;8.28;;;;;;;-1.31;64.27;95783.88;1787798;80;21502;-92
2021/01/28 09:34:27;;;;;;;13.68;9.00;;;;;;;-1.15;64.84;95793.34;1784614;80;21182;-92
2021/01/28 09:36:59;;;;;;;14.10;7.62;;;;;;;-1.02;64.04;95793.13;1797523;79;21127;-94
2021/01/28 09:39:51;;;;;;;14.95;8.48;;;;;;;-0.95;63.86;95784.21;1792593;80;21115;-96
2021/01/28 09:42:28;;;;;;;12.50;7.75;;;;;;;-0.99;63.46;95779.66;1777127;80;21136;-90
2021/01/28 09:45:10;;;;;;;14.83;8.48;;;;;;;-0.87;63.52;95762.77;1789813;79;21443;-90
2021/01/28 09:47:38;;;;;;;11.80;5.55;;;;;;;-0.93;62.97;95767.07;1772689;81;21123;-89
2021/01/28 09:50:10;;;;;;;13.58;6.67;;;;;;;-0.95;62.40;95748.30;1787604;79;21478;-92
2021/01/28 09:52:47;;;;;;;14.47;7.30;;;;;;;-0.94;62.66;95743.38;1804359;79;21087;-92
2021/01/28 09:55:23;;;;;;;14.55;7.55;;;;;;;-0.91;62.69;95736.41;1768685;81;21124;-93
2021/01/28 09:57:52;;;;;;;14.50;6.05;;;;;;;-1.05;62.78;95713.74;1751426;81;21115;-91
2021/01/28 10:00:23;;;;;;;20.45;10.38;;;;;;;-0.84;62.91;95722.00;1769747;80;21131;-93
2021/01/28 10:02:59;;;;;;;19.25;10.20;;;;;;;-0.67;63.22;95722.88;1762598;81;21098;-94
2021/01/28 10:05:30;;;;;;;13.08;4.78;;;;;;;-0.52;63.13;95715.38;1766930;80;21120;-93
2021/01/28 10:07:59;;;;;;;12.47;7.22;;;;;;;-0.26;62.79;95714.06;1753778;80;21176;-93
2021/01/28 10:10:31;;;;;;;11.73;7.08;;;;;;;-0.12;62.44;95708.07;1767000;80;21484;-93
2021/01/28 10:13:03;;;;;;;15.08;6.03;;;;;;;-0.12;62.44;95708.07;1804221;79;21197;-91
2021/01/28 10:15:31;;;;;;;8.40;4.92;;;;;;;0.07;61.70;95704.75;1804447;79;21450;-91
2021/01/28 10:17:59;;;;;;;13.38;7.22;;;;;;;0.09;61.67;95694.87;1804041;79;21134;-92
2021/01/28 10:20:28;;;;;;;12.00;6.65;;;;;;;-0.04;61.69;95702.47;1804350;79;21122;-92
2021/01/28 10:23:01;;;;;;;12.20;6.90;;;;;;;-0.06;62.32;95681.08;1804480;79;21155;-92
2021/01/28 10:25:29;;;;;;;11.10;6.22;;;;;;;-0.04;62.83;95679.81;1798341;79;21073;-92
2021/01/28 10:27:57;;;;;;;9.00;5.53;;;;;;;-0.17;62.52;95659.77;1799255;79;21190;-93
2021/01/28 10:30:24;;;;;;;6.08;3.60;;;;;;;-0.17;62.82;95661.86;1773128;81;21129;-92
2021/01/28 10:32:53;;;;;;;6.35;3.85;;;;;;;0.01;62.31;95662.70;1804340;79;21526;-93
2021/01/28 10:35:26;;;;;;;10.45;5.58;;;;;;;-0.06;61.72;95655.02;1804456;79;21114;-92
2021/01/28 10:37:54;;;;;;;10.82;5.30;;;;;;;-0.33;62.33;95643.09;1804463;79;21135;-92
2021/01/28 10:40:23;;;;;;;9.20;4.80;;;;;;;-0.36;62.99;95660.48;1776618;79;21118;-92
2021/01/28 10:42:57;;;;;;;6.83;4.10;;;;;;;-0.32;63.51;95639.45;1774838;79;21159;-91
2021/01/28 10:45:29;;;;;;;10.63;6.70;;;;;;;-0.41;62.88;95620.83;1796296;79;21111;-92
2021/01/28 10:47:57;;;;;;;8.70;4.90;;;;;;;-0.35;63.86;95631.60;1804008;79;21173;-92
2021/01/28 10:50:24;;;;;;;6.55;3.95;;;;;;;-0.21;64.18;95625.59;1799457;79;21135;-93
2021/01/28 10:52:53;;;;;;;12.73;5.42;;;;;;;-0.27;62.85;95620.55;1785689;79;21101;-94
2021/01/28 10:55:23;;;;;;;10.20;5.58;;;;;;;-0.36;63.59;95614.91;1793263;79;21123;-91
2021/01/28 10:57:50;;;;;;;9.85;5.40;;;;;;;-0.18;64.08;95611.31;1788038;79;21102;-91
2021/01/28 11:00:20;;;;;;;8.60;5.03;;;;;;;0.02;64.61;95600.45;1772535;80;21494;-93
2021/01/28 11:02:47;;;;;;;9.05;5.20;;;;;;;0.30;64.01;95600.38;1785057;79;21148;-89
2021/01/28 11:05:25;;;;;;;7.03;4.00;;;;;;;0.41;63.29;95605.98;1789200;79;21140;-91
2021/01/28 11:07:53;;;;;;;8.73;5.10;;;;;;;0.43;62.76;95586.23;1789767;79;21173;-91
2021/01/28 11:10:23;;;;;;;8.95;4.65;;;;;;;0.24;62.47;95589.06;1772802;80;21573;-90
2021/01/28 11:12:53;;;;;;;11.20;6.10;;;;;;;0.20;62.37;95587.18;1786736;79;21116;-89
2021/01/28 11:15:24;;;;;;;7.83;4.63;;;;;;;0.25;62.85;95588.55;1783178;79;21098;-90
2021/01/28 11:17:51;;;;;;;8.05;4.55;;;;;;;0.24;62.47;95583.06;1767045;80;21451;-90
2021/01/28 11:20:19;;;;;;;12.53;6.47;;;;;;;0.33;62.89;95580.34;1760841;80;21164;-90
2021/01/28 11:22:46;;;;;;;9.50;4.95;;;;;;;0.37;62.75;95585.86;1761899;80;21150;-90
2021/01/28 11:25:21;;;;;;;8.60;5.00;;;;;;;0.37;62.81;95572.83;1737811;81;21139;-91
2021/01/28 11:27:49;;;;;;;8.38;5.70;;;;;;;0.25;62.89;95556.76;1772629;80;21124;-90
2021/01/28 11:30:22;;;;;;;10.00;5.42;;;;;;;0.20;63.48;95531.15;1773448;79;21118;-91
2021/01/28 11:32:49;;;;;;;12.82;5.50;;;;;;;0.50;63.32;95551.12;1785283;79;21136;-90
2021/01/28 11:35:21;;;;;;;10.65;6.10;;;;;;;0.54;63.12;95554.81;1780711;79;21126;-89
2021/01/28 11:37:49;;;;;;;10.60;6.25;;;;;;;0.52;63.52;95547.75;1764584;80;21558;-90
2021/01/28 11:40:22;;;;;;;12.73;6.78;;;;;;;0.59;63.35;95537.95;1789499;80;21185;-89
2021/01/28 11:42:50;;;;;;;12.90;7.62;;;;;;;0.67;64.01;95532.81;1795299;79;21154;-88
2021/01/28 11:45:22;;;;;;;13.43;6.58;;;;;;;0.99;64.82;95534.78;1791858;79;21193;-90
2021/01/28 11:47:49;;;;;;;12.98;6.90;;;;;;;1.29;64.96;95527.27;1782598;80;21736;-88
2021/01/28 11:50:18;;;;;;;9.20;4.92;;;;;;;1.52;64.67;95530.61;1785706;80;21174;-92
2021/01/28 11:52:48;;;;;;;13.98;7.60;;;;;;;1.64;63.34;95530.72;1772830;79;21092;-89
2021/01/28 11:55:20;;;;;;;14.28;7.47;;;;;;;1.35;63.40;95508.00;1775059;80;21104;-89
2021/01/28 11:57:47;;;;;;;12.75;7.22;;;;;;;1.44;63.39;95492.16;1784505;79;21154;-89
2021/01/28 12:00:17;;;;;;;14.83;8.15;;;;;;;1.44;62.94;95486.16;1782180;80;21084;-90
2021/01/28 12:02:44;;;;;;;11.77;6.60;;;;;;;1.31;62.63;95484.73;1788086;79;21143;-88
2021/01/28 12:05:14;;;;;;;14.60;7.65;;;;;;;1.23;63.11;95476.03;1790167;79;21445;-90